sensor_id;sensor_type;location;lat;lon;timestamp;temperature;humidity
63260;DHT22;49390;51.380;0.098;2022-10-28T00:01:15;17.10;99.90
63260;DHT22;49390;51.380;0.098;2022-10-28T00:03:55;17.10;99.90
63260;DHT22;49390;51.380;0.098;2022-10-28T00:06:37;17.10;99.90
63260;DHT22;49390;51.380;0.098;2022-10-28T00:09:08;16.90;99.90
63260;DHT22;49390;51.380;0.098;2022-10-28T00:12:04;17.00;99.90
63260;DHT22;49390;51.380;0.098;2022-10-28T00:22:47;16.90;99.90
63260;DHT22;49390;51.380;0.098;2022-10-28T00:25:18;16.90;99.90
63260;DHT22;49390;51.380;0.098;2022-10-28T00:28:17;16.90;99.90
63260;DHT22;49390;51.380;0.098;2022-10-28T00:30:45;16.90;99.90
63260;DHT22;49390;51.380;0.098;2022-10-28T00:33:13;16.90;99.90
63260;DHT22;49390;51.380;0.098;2022-10-28T00:35:42;16.90;99.90
63260;DHT22;49390;51.380;0.098;2022-10-28T00:38:14;16.80;99.90
63260;DHT22;49390;51.380;0.098;2022-10-28T00:40:43;16.80;99.90
63260;DHT22;49390;51.380;0.098;2022-10-28T00:43:46;16.80;99.90
63260;DHT22;49390;51.380;0.098;2022-10-28T00:49:25;16.80;99.90
63260;DHT22;49390;51.380;0.098;2022-10-28T00:52:04;16.80;99.90
63260;DHT22;49390;51.380;0.098;2022-10-28T00:54:35;16.80;99.90
63260;DHT22;49390;51.380;0.098;2022-10-28T00:57:09;16.70;99.90
63260;DHT22;49390;51.380;0.098;2022-10-28T00:59:42;16.70;99.90
63260;DHT22;49390;51.380;0.098;2022-10-28T01:02:12;16.70;99.90
63260;DHT22;49390;51.380;0.098;2022-10-28T01:04:43;16.70;99.90
63260;DHT22;49390;51.380;0.098;2022-10-28T01:07:12;16.70;99.90
63260;DHT22;49390;51.380;0.098;2022-10-28T01:09:41;16.70;99.90
63260;DHT22;49390;51.380;0.098;2022-10-28T01:18:17;16.60;99.90
63260;DHT22;49390;51.380;0.098;2022-10-28T01:24:31;16.50;99.90
63260;DHT22;49390;51.380;0.098;2022-10-28T01:33:34;16.50;99.90
63260;DHT22;49390;51.380;0.098;2022-10-28T01:36:22;16.40;99.90
63260;DHT22;49390;51.380;0.098;2022-10-28T01:42:01;16.40;99.90
63260;DHT22;49390;51.380;0.098;2022-10-28T01:53:50;16.30;99.90
63260;DHT22;49390;51.380;0.098;2022-10-28T01:56:44;16.30;99.90
63260;DHT22;49390;51.380;0.098;2022-10-28T02:01:46;16.30;99.90
63260;DHT22;49390;51.380;0.098;2022-10-28T02:04:15;16.30;99.90
63260;DHT22;49390;51.380;0.098;2022-10-28T02:06:46;16.30;99.90
63260;DHT22;49390;51.380;0.098;2022-10-28T02:09:42;16.30;99.90
63260;DHT22;49390;51.380;0.098;2022-10-28T02:18:40;16.40;99.90
63260;DHT22;49390;51.380;0.098;2022-10-28T02:21:19;16.40;99.90
63260;DHT22;49390;51.380;0.098;2022-10-28T02:23:56;16.40;99.90
63260;DHT22;49390;51.380;0.098;2022-10-28T02:26:39;16.30;99.90
63260;DHT22;49390;51.380;0.098;2022-10-28T02:29:30;16.30;99.90
63260;DHT22;49390;51.380;0.098;2022-10-28T02:32:14;16.30;99.90
63260;DHT22;49390;51.380;0.098;2022-10-28T02:34:46;16.30;99.90
63260;DHT22;49390;51.380;0.098;2022-10-28T02:37:28;16.20;99.90
63260;DHT22;49390;51.380;0.098;2022-10-28T02:40:00;16.20;99.90
63260;DHT22;49390;51.380;0.098;2022-10-28T02:42:34;16.20;99.90
63260;DHT22;49390;51.380;0.098;2022-10-28T02:45:20;16.20;99.90
63260;DHT22;49390;51.380;0.098;2022-10-28T02:48:00;16.10;99.90
63260;DHT22;49390;51.380;0.098;2022-10-28T02:50:35;16.10;99.90
63260;DHT22;49390;51.380;0.098;2022-10-28T02:53:11;16.10;99.90
63260;DHT22;49390;51.380;0.098;2022-10-28T02:55:42;16.10;99.90
63260;DHT22;49390;51.380;0.098;2022-10-28T02:58:11;16.10;99.90
63260;DHT22;49390;51.380;0.098;2022-10-28T03:00:45;16.10;99.90
63260;DHT22;49390;51.380;0.098;2022-10-28T03:03:14;16.00;99.90
63260;DHT22;49390;51.380;0.098;2022-10-28T03:05:45;16.00;99.90
63260;DHT22;49390;51.380;0.098;2022-10-28T03:08:16;16.00;99.90
63260;DHT22;49390;51.380;0.098;2022-10-28T03:10:44;16.00;99.90
63260;DHT22;49390;51.380;0.098;2022-10-28T03:13:13;15.90;99.90
63260;DHT22;49390;51.380;0.098;2022-10-28T03:15:40;16.00;99.90
63260;DHT22;49390;51.380;0.098;2022-10-28T03:18:08;16.00;99.90
63260;DHT22;49390;51.380;0.098;2022-10-28T03:20:36;16.00;99.90
63260;DHT22;49390;51.380;0.098;2022-10-28T03:23:04;16.00;99.90
63260;DHT22;49390;51.380;0.098;2022-10-28T03:25:35;16.00;99.90
63260;DHT22;49390;51.380;0.098;2022-10-28T03:28:04;16.00;99.90
63260;DHT22;49390;51.380;0.098;2022-10-28T03:30:33;16.00;99.90
63260;DHT22;49390;51.380;0.098;2022-10-28T03:33:01;16.00;99.90
63260;DHT22;49390;51.380;0.098;2022-10-28T03:35:29;16.00;99.90
63260;DHT22;49390;51.380;0.098;2022-10-28T03:37:57;16.00;99.90
63260;DHT22;49390;51.380;0.098;2022-10-28T03:40:25;16.00;99.90
63260;DHT22;49390;51.380;0.098;2022-10-28T03:42:53;16.00;99.90
63260;DHT22;49390;51.380;0.098;2022-10-28T03:45:21;15.90;99.90
63260;DHT22;49390;51.380;0.098;2022-10-28T03:47:50;15.90;99.90
63260;DHT22;49390;51.380;0.098;2022-10-28T03:50:18;15.90;99.90
63260;DHT22;49390;51.380;0.098;2022-10-28T03:52:47;15.90;99.90
63260;DHT22;49390;51.380;0.098;2022-10-28T03:55:15;16.00;99.90
63260;DHT22;49390;51.380;0.098;2022-10-28T03:57:44;15.90;99.90
63260;DHT22;49390;51.380;0.098;2022-10-28T04:00:12;15.90;99.90
63260;DHT22;49390;51.380;0.098;2022-10-28T04:02:42;16.00;99.90
63260;DHT22;49390;51.380;0.098;2022-10-28T04:05:10;16.00;99.90
63260;DHT22;49390;51.380;0.098;2022-10-28T04:07:38;16.00;99.90
63260;DHT22;49390;51.380;0.098;2022-10-28T04:10:06;16.00;99.90
63260;DHT22;49390;51.380;0.098;2022-10-28T04:12:35;15.90;99.90
63260;DHT22;49390;51.380;0.098;2022-10-28T04:15:04;16.00;99.90
63260;DHT22;49390;51.380;0.098;2022-10-28T04:17:35;16.00;99.90
63260;DHT22;49390;51.380;0.098;2022-10-28T04:20:04;16.10;99.90
63260;DHT22;49390;51.380;0.098;2022-10-28T04:22:32;16.10;99.90
63260;DHT22;49390;51.380;0.098;2022-10-28T04:25:02;16.10;99.90
63260;DHT22;49390;51.380;0.098;2022-10-28T04:27:30;16.20;99.90
63260;DHT22;49390;51.380;0.098;2022-10-28T04:29:58;16.20;99.90
63260;DHT22;49390;51.380;0.098;2022-10-28T04:32:26;16.30;99.90
63260;DHT22;49390;51.380;0.098;2022-10-28T04:34:54;16.30;99.90
63260;DHT22;49390;51.380;0.098;2022-10-28T04:37:22;16.40;99.90
63260;DHT22;49390;51.380;0.098;2022-10-28T04:39:50;16.40;99.90
63260;DHT22;49390;51.380;0.098;2022-10-28T04:42:18;16.50;99.90
63260;DHT22;49390;51.380;0.098;2022-10-28T04:44:46;16.50;99.90
63260;DHT22;49390;51.380;0.098;2022-10-28T04:47:15;16.60;99.90
63260;DHT22;49390;51.380;0.098;2022-10-28T04:49:44;16.60;99.90
63260;DHT22;49390;51.380;0.098;2022-10-28T04:52:12;16.60;99.90
63260;DHT22;49390;51.380;0.098;2022-10-28T04:54:42;16.60;99.90
63260;DHT22;49390;51.380;0.098;2022-10-28T04:57:10;16.60;99.90
63260;DHT22;49390;51.380;0.098;2022-10-28T04:59:38;16.70;99.90
63260;DHT22;49390;51.380;0.098;2022-10-28T05:02:10;16.70;99.90
63260;DHT22;49390;51.380;0.098;2022-10-28T05:04:38;16.80;99.90
63260;DHT22;49390;51.380;0.098;2022-10-28T05:07:06;16.80;99.90
63260;DHT22;49390;51.380;0.098;2022-10-28T05:09:35;16.80;99.90
63260;DHT22;49390;51.380;0.098;2022-10-28T05:12:04;16.80;99.90
63260;DHT22;49390;51.380;0.098;2022-10-28T05:14:33;16.80;99.90
63260;DHT22;49390;51.380;0.098;2022-10-28T05:17:02;16.80;99.90
63260;DHT22;49390;51.380;0.098;2022-10-28T05:19:32;16.70;99.90
63260;DHT22;49390;51.380;0.098;2022-10-28T05:22:00;16.70;99.90
63260;DHT22;49390;51.380;0.098;2022-10-28T05:24:28;16.70;99.90
63260;DHT22;49390;51.380;0.098;2022-10-28T05:26:58;16.70;99.90
63260;DHT22;49390;51.380;0.098;2022-10-28T05:29:27;16.80;99.90
63260;DHT22;49390;51.380;0.098;2022-10-28T05:32:00;16.80;99.90
63260;DHT22;49390;51.380;0.098;2022-10-28T05:34:29;16.80;99.90
63260;DHT22;49390;51.380;0.098;2022-10-28T05:36:58;16.80;99.90
63260;DHT22;49390;51.380;0.098;2022-10-28T05:39:26;16.80;99.90
63260;DHT22;49390;51.380;0.098;2022-10-28T05:41:54;16.80;99.90
63260;DHT22;49390;51.380;0.098;2022-10-28T05:44:22;16.80;99.90
63260;DHT22;49390;51.380;0.098;2022-10-28T05:46:52;16.80;99.90
63260;DHT22;49390;51.380;0.098;2022-10-28T05:49:21;16.90;99.90
63260;DHT22;49390;51.380;0.098;2022-10-28T05:51:51;16.80;99.90
63260;DHT22;49390;51.380;0.098;2022-10-28T05:54:18;16.80;99.90
63260;DHT22;49390;51.380;0.098;2022-10-28T05:56:47;16.90;99.90
63260;DHT22;49390;51.380;0.098;2022-10-28T05:59:15;16.80;99.90
63260;DHT22;49390;51.380;0.098;2022-10-28T06:01:43;16.80;99.90
63260;DHT22;49390;51.380;0.098;2022-10-28T06:04:12;16.80;99.90
63260;DHT22;49390;51.380;0.098;2022-10-28T06:06:43;16.80;99.90
63260;DHT22;49390;51.380;0.098;2022-10-28T06:09:12;16.80;99.90
63260;DHT22;49390;51.380;0.098;2022-10-28T06:11:41;16.80;99.90
63260;DHT22;49390;51.380;0.098;2022-10-28T06:14:09;16.70;99.90
63260;DHT22;49390;51.380;0.098;2022-10-28T06:16:38;16.80;99.90
63260;DHT22;49390;51.380;0.098;2022-10-28T06:19:05;16.80;99.90
63260;DHT22;49390;51.380;0.098;2022-10-28T06:21:34;16.70;99.90
63260;DHT22;49390;51.380;0.098;2022-10-28T06:24:02;16.70;99.90
63260;DHT22;49390;51.380;0.098;2022-10-28T06:26:30;16.70;99.90
63260;DHT22;49390;51.380;0.098;2022-10-28T06:28:58;16.70;99.90
63260;DHT22;49390;51.380;0.098;2022-10-28T06:31:26;16.70;99.90
63260;DHT22;49390;51.380;0.098;2022-10-28T06:33:55;16.70;99.90
63260;DHT22;49390;51.380;0.098;2022-10-28T06:36:24;16.70;99.90
63260;DHT22;49390;51.380;0.098;2022-10-28T06:38:52;16.70;99.90
63260;DHT22;49390;51.380;0.098;2022-10-28T06:41:20;16.70;99.90
63260;DHT22;49390;51.380;0.098;2022-10-28T06:43:49;16.60;99.90
63260;DHT22;49390;51.380;0.098;2022-10-28T06:46:17;16.70;99.90
63260;DHT22;49390;51.380;0.098;2022-10-28T06:48:45;16.60;99.90
63260;DHT22;49390;51.380;0.098;2022-10-28T06:51:14;16.60;99.90
63260;DHT22;49390;51.380;0.098;2022-10-28T06:53:50;16.60;99.90
63260;DHT22;49390;51.380;0.098;2022-10-28T06:56:20;16.60;99.90
63260;DHT22;49390;51.380;0.098;2022-10-28T06:58:50;16.70;99.90
63260;DHT22;49390;51.380;0.098;2022-10-28T07:01:34;16.70;99.90
63260;DHT22;49390;51.380;0.098;2022-10-28T07:04:06;16.70;99.90
63260;DHT22;49390;51.380;0.098;2022-10-28T07:06:35;16.70;99.90
63260;DHT22;49390;51.380;0.098;2022-10-28T07:09:03;16.70;99.90
63260;DHT22;49390;51.380;0.098;2022-10-28T07:11:31;16.70;99.90
63260;DHT22;49390;51.380;0.098;2022-10-28T07:14:00;16.80;99.90
63260;DHT22;49390;51.380;0.098;2022-10-28T07:16:29;16.80;99.90
63260;DHT22;49390;51.380;0.098;2022-10-28T07:18:57;16.70;99.90
63260;DHT22;49390;51.380;0.098;2022-10-28T07:21:25;16.80;99.90
63260;DHT22;49390;51.380;0.098;2022-10-28T07:23:55;16.80;99.90
63260;DHT22;49390;51.380;0.098;2022-10-28T07:26:24;16.80;99.90
63260;DHT22;49390;51.380;0.098;2022-10-28T07:28:54;16.80;99.90
63260;DHT22;49390;51.380;0.098;2022-10-28T07:31:22;16.80;99.90
63260;DHT22;49390;51.380;0.098;2022-10-28T07:33:52;16.90;99.90
63260;DHT22;49390;51.380;0.098;2022-10-28T07:36:21;16.90;99.90
63260;DHT22;49390;51.380;0.098;2022-10-28T07:38:50;16.90;99.90
63260;DHT22;49390;51.380;0.098;2022-10-28T07:41:23;16.90;99.90
63260;DHT22;49390;51.380;0.098;2022-10-28T07:43:51;16.90;99.90
63260;DHT22;49390;51.380;0.098;2022-10-28T07:46:19;16.90;99.90
63260;DHT22;49390;51.380;0.098;2022-10-28T07:48:47;16.90;99.90
63260;DHT22;49390;51.380;0.098;2022-10-28T07:51:15;17.00;99.90
63260;DHT22;49390;51.380;0.098;2022-10-28T07:53:44;17.00;99.90
63260;DHT22;49390;51.380;0.098;2022-10-28T07:56:12;17.10;99.90
63260;DHT22;49390;51.380;0.098;2022-10-28T07:58:42;17.10;99.90
63260;DHT22;49390;51.380;0.098;2022-10-28T08:01:13;17.10;99.90
63260;DHT22;49390;51.380;0.098;2022-10-28T08:03:42;17.20;99.90
63260;DHT22;49390;51.380;0.098;2022-10-28T08:06:16;17.20;99.90
63260;DHT22;49390;51.380;0.098;2022-10-28T08:08:47;17.20;99.90
63260;DHT22;49390;51.380;0.098;2022-10-28T08:11:18;17.30;99.90
63260;DHT22;49390;51.380;0.098;2022-10-28T08:13:47;17.30;99.90
63260;DHT22;49390;51.380;0.098;2022-10-28T08:16:16;17.30;99.90
63260;DHT22;49390;51.380;0.098;2022-10-28T08:18:44;17.40;99.90
63260;DHT22;49390;51.380;0.098;2022-10-28T08:21:13;17.40;99.90
63260;DHT22;49390;51.380;0.098;2022-10-28T08:23:42;17.50;99.90
63260;DHT22;49390;51.380;0.098;2022-10-28T08:26:14;17.50;99.90
63260;DHT22;49390;51.380;0.098;2022-10-28T08:28:43;17.60;99.90
63260;DHT22;49390;51.380;0.098;2022-10-28T08:31:10;17.70;99.90
63260;DHT22;49390;51.380;0.098;2022-10-28T08:33:42;17.70;99.90
63260;DHT22;49390;51.380;0.098;2022-10-28T08:36:15;17.80;99.90
63260;DHT22;49390;51.380;0.098;2022-10-28T08:38:45;17.80;99.90
63260;DHT22;49390;51.380;0.098;2022-10-28T08:49:11;17.90;99.90
63260;DHT22;49390;51.380;0.098;2022-10-28T08:52:01;17.90;99.90
63260;DHT22;49390;51.380;0.098;2022-10-28T08:54:45;17.90;99.90
63260;DHT22;49390;51.380;0.098;2022-10-28T08:57:20;17.90;99.90
63260;DHT22;49390;51.380;0.098;2022-10-28T08:59:51;18.00;99.90
63260;DHT22;49390;51.380;0.098;2022-10-28T09:05:05;18.00;99.90
63260;DHT22;49390;51.380;0.098;2022-10-28T09:07:36;18.00;99.90
63260;DHT22;49390;51.380;0.098;2022-10-28T09:10:05;17.90;99.90
63260;DHT22;49390;51.380;0.098;2022-10-28T09:18:54;18.00;99.90
63260;DHT22;49390;51.380;0.098;2022-10-28T09:21:46;18.00;99.90
63260;DHT22;49390;51.380;0.098;2022-10-28T09:32:45;18.30;99.90
63260;DHT22;49390;51.380;0.098;2022-10-28T09:35:18;18.30;99.90
63260;DHT22;49390;51.380;0.098;2022-10-28T09:38:01;18.40;99.90
63260;DHT22;49390;51.380;0.098;2022-10-28T09:40:34;18.40;99.90
63260;DHT22;49390;51.380;0.098;2022-10-28T09:45:44;18.50;99.90
63260;DHT22;49390;51.380;0.098;2022-10-28T09:48:22;18.50;99.90
63260;DHT22;49390;51.380;0.098;2022-10-28T09:50:54;18.50;99.90
63260;DHT22;49390;51.380;0.098;2022-10-28T09:53:32;18.60;99.90
63260;DHT22;49390;51.380;0.098;2022-10-28T09:56:06;18.60;99.90
63260;DHT22;49390;51.380;0.098;2022-10-28T09:58:41;18.60;99.90
63260;DHT22;49390;51.380;0.098;2022-10-28T10:01:13;18.60;99.90
63260;DHT22;49390;51.380;0.098;2022-10-28T10:03:43;18.70;99.90
63260;DHT22;49390;51.380;0.098;2022-10-28T10:06:26;18.60;99.90
63260;DHT22;49390;51.380;0.098;2022-10-28T10:08:57;18.70;99.90
63260;DHT22;49390;51.380;0.098;2022-10-28T10:14:03;18.60;99.90
63260;DHT22;49390;51.380;0.098;2022-10-28T10:16:42;18.60;99.90
63260;DHT22;49390;51.380;0.098;2022-10-28T10:19:12;18.60;99.90
63260;DHT22;49390;51.380;0.098;2022-10-28T10:21:50;18.50;99.90
63260;DHT22;49390;51.380;0.098;2022-10-28T10:29:44;18.50;99.90
63260;DHT22;49390;51.380;0.098;2022-10-28T10:32:18;18.50;99.90
63260;DHT22;49390;51.380;0.098;2022-10-28T10:37:44;18.60;99.90
63260;DHT22;49390;51.380;0.098;2022-10-28T10:40:25;18.70;99.90
63260;DHT22;49390;51.380;0.098;2022-10-28T10:42:54;18.80;99.90
63260;DHT22;49390;51.380;0.098;2022-10-28T10:45:51;18.70;99.90
63260;DHT22;49390;51.380;0.098;2022-10-28T10:48:20;18.80;99.90
63260;DHT22;49390;51.380;0.098;2022-10-28T10:50:50;18.80;99.90
63260;DHT22;49390;51.380;0.098;2022-10-28T10:53:26;18.90;99.90
63260;DHT22;49390;51.380;0.098;2022-10-28T10:55:56;18.90;99.90
63260;DHT22;49390;51.380;0.098;2022-10-28T10:58:30;19.00;99.90
63260;DHT22;49390;51.380;0.098;2022-10-28T11:01:01;19.00;99.90
63260;DHT22;49390;51.380;0.098;2022-10-28T11:03:38;19.10;99.90
63260;DHT22;49390;51.380;0.098;2022-10-28T11:06:07;19.10;99.90
63260;DHT22;49390;51.380;0.098;2022-10-28T11:08:58;19.10;99.90
63260;DHT22;49390;51.380;0.098;2022-10-28T11:11:49;18.90;99.90
63260;DHT22;49390;51.380;0.098;2022-10-28T11:14:27;18.90;99.90
63260;DHT22;49390;51.380;0.098;2022-10-28T11:17:02;18.80;99.90
63260;DHT22;49390;51.380;0.098;2022-10-28T11:19:36;18.80;99.90
63260;DHT22;49390;51.380;0.098;2022-10-28T11:33:09;18.70;99.90
63260;DHT22;49390;51.380;0.098;2022-10-28T11:35:59;18.60;99.90
63260;DHT22;49390;51.380;0.098;2022-10-28T11:43:55;18.60;99.90
63260;DHT22;49390;51.380;0.098;2022-10-28T11:46:51;18.70;99.90
63260;DHT22;49390;51.380;0.098;2022-10-28T11:49:49;18.70;99.90
63260;DHT22;49390;51.380;0.098;2022-10-28T12:06:52;18.50;99.90
63260;DHT22;49390;51.380;0.098;2022-10-28T12:17:38;18.80;99.90
63260;DHT22;49390;51.380;0.098;2022-10-28T12:20:18;18.90;99.90
63260;DHT22;49390;51.380;0.098;2022-10-28T12:23:00;19.10;99.90
63260;DHT22;49390;51.380;0.098;2022-10-28T12:25:34;19.30;99.90
63260;DHT22;49390;51.380;0.098;2022-10-28T12:28:15;19.50;99.90
63260;DHT22;49390;51.380;0.098;2022-10-28T12:30:48;19.60;99.90
63260;DHT22;49390;51.380;0.098;2022-10-28T12:33:32;19.60;99.90
63260;DHT22;49390;51.380;0.098;2022-10-28T12:38:40;19.70;99.90
63260;DHT22;49390;51.380;0.098;2022-10-28T12:41:17;19.80;99.90
63260;DHT22;49390;51.380;0.098;2022-10-28T12:57:53;19.70;99.90
63260;DHT22;49390;51.380;0.098;2022-10-28T13:00:27;19.60;99.90
63260;DHT22;49390;51.380;0.098;2022-10-28T13:08:42;19.60;99.90
63260;DHT22;49390;51.380;0.098;2022-10-28T13:14:07;19.60;99.90
63260;DHT22;49390;51.380;0.098;2022-10-28T13:16:51;19.60;99.90
63260;DHT22;49390;51.380;0.098;2022-10-28T13:20:00;19.60;99.90
63260;DHT22;49390;51.380;0.098;2022-10-28T13:27:57;19.60;99.90
63260;DHT22;49390;51.380;0.098;2022-10-28T13:30:27;19.60;99.90
63260;DHT22;49390;51.380;0.098;2022-10-28T13:33:15;19.60;99.90
63260;DHT22;49390;51.380;0.098;2022-10-28T13:35:45;19.60;99.90
63260;DHT22;49390;51.380;0.098;2022-10-28T13:38:25;19.60;99.90
63260;DHT22;49390;51.380;0.098;2022-10-28T13:49:29;19.60;99.90
63260;DHT22;49390;51.380;0.098;2022-10-28T13:52:01;19.60;99.90
63260;DHT22;49390;51.380;0.098;2022-10-28T13:57:34;19.50;99.90
63260;DHT22;49390;51.380;0.098;2022-10-28T14:00:32;19.50;99.90
63260;DHT22;49390;51.380;0.098;2022-10-28T14:03:01;19.50;99.90
63260;DHT22;49390;51.380;0.098;2022-10-28T14:13:38;19.40;99.90
63260;DHT22;49390;51.380;0.098;2022-10-28T14:24:39;19.50;99.90
63260;DHT22;49390;51.380;0.098;2022-10-28T14:40:47;19.50;99.90
63260;DHT22;49390;51.380;0.098;2022-10-28T14:46:18;19.60;99.90
63260;DHT22;49390;51.380;0.098;2022-10-28T14:48:59;19.60;99.90
63260;DHT22;49390;51.380;0.098;2022-10-28T14:51:39;19.80;99.90
63260;DHT22;49390;51.380;0.098;2022-10-28T14:54:16;19.70;99.90
63260;DHT22;49390;51.380;0.098;2022-10-28T14:56:48;19.70;99.90
63260;DHT22;49390;51.380;0.098;2022-10-28T14:59:29;19.70;99.90
63260;DHT22;49390;51.380;0.098;2022-10-28T15:02:19;19.60;99.90
63260;DHT22;49390;51.380;0.098;2022-10-28T15:07:27;19.50;99.90
63260;DHT22;49390;51.380;0.098;2022-10-28T15:10:24;19.40;99.90
63260;DHT22;49390;51.380;0.098;2022-10-28T15:12:53;19.40;99.90
63260;DHT22;49390;51.380;0.098;2022-10-28T15:15:32;19.30;99.90
63260;DHT22;49390;51.380;0.098;2022-10-28T15:18:20;19.30;99.90
63260;DHT22;49390;51.380;0.098;2022-10-28T15:21:10;19.30;99.90
63260;DHT22;49390;51.380;0.098;2022-10-28T15:23:38;19.30;99.90
63260;DHT22;49390;51.380;0.098;2022-10-28T15:26:11;19.20;99.90
63260;DHT22;49390;51.380;0.098;2022-10-28T15:28:41;19.20;99.90
63260;DHT22;49390;51.380;0.098;2022-10-28T15:31:15;19.20;99.90
63260;DHT22;49390;51.380;0.098;2022-10-28T15:33:43;19.10;99.90
63260;DHT22;49390;51.380;0.098;2022-10-28T15:38:48;19.00;99.90
63260;DHT22;49390;51.380;0.098;2022-10-28T15:44:00;18.90;99.90
63260;DHT22;49390;51.380;0.098;2022-10-28T15:46:30;18.90;99.90
63260;DHT22;49390;51.380;0.098;2022-10-28T15:49:00;18.80;99.90
63260;DHT22;49390;51.380;0.098;2022-10-28T15:51:30;18.70;99.90
63260;DHT22;49390;51.380;0.098;2022-10-28T15:54:17;18.70;99.90
63260;DHT22;49390;51.380;0.098;2022-10-28T15:56:54;18.60;99.90
63260;DHT22;49390;51.380;0.098;2022-10-28T15:59:24;18.50;99.90
63260;DHT22;49390;51.380;0.098;2022-10-28T16:01:52;18.50;99.90
63260;DHT22;49390;51.380;0.098;2022-10-28T16:06:56;18.50;99.90
63260;DHT22;49390;51.380;0.098;2022-10-28T16:09:36;18.30;99.90
63260;DHT22;49390;51.380;0.098;2022-10-28T16:12:16;18.20;99.90
63260;DHT22;49390;51.380;0.098;2022-10-28T16:15:14;18.20;99.90
63260;DHT22;49390;51.380;0.098;2022-10-28T16:17:43;18.10;99.90
63260;DHT22;49390;51.380;0.098;2022-10-28T16:20:11;18.00;99.90
63260;DHT22;49390;51.380;0.098;2022-10-28T16:22:46;18.00;99.90
63260;DHT22;49390;51.380;0.098;2022-10-28T16:25:20;17.90;99.90
63260;DHT22;49390;51.380;0.098;2022-10-28T16:27:49;17.90;99.90
63260;DHT22;49390;51.380;0.098;2022-10-28T16:30:18;17.80;99.90
63260;DHT22;49390;51.380;0.098;2022-10-28T16:32:47;17.70;99.90
63260;DHT22;49390;51.380;0.098;2022-10-28T16:35:18;17.60;99.90
63260;DHT22;49390;51.380;0.098;2022-10-28T16:37:48;17.60;99.90
63260;DHT22;49390;51.380;0.098;2022-10-28T16:40:22;17.50;99.90
63260;DHT22;49390;51.380;0.098;2022-10-28T16:43:22;17.50;99.90
63260;DHT22;49390;51.380;0.098;2022-10-28T16:45:53;17.40;99.90
63260;DHT22;49390;51.380;0.098;2022-10-28T16:48:23;17.30;99.90
63260;DHT22;49390;51.380;0.098;2022-10-28T16:50:55;17.30;99.90
63260;DHT22;49390;51.380;0.098;2022-10-28T16:53:24;17.20;99.90
63260;DHT22;49390;51.380;0.098;2022-10-28T16:55:53;17.10;99.90
63260;DHT22;49390;51.380;0.098;2022-10-28T16:58:29;17.10;99.90
63260;DHT22;49390;51.380;0.098;2022-10-28T17:00:59;17.00;99.90
63260;DHT22;49390;51.380;0.098;2022-10-28T17:03:27;17.00;99.90
63260;DHT22;49390;51.380;0.098;2022-10-28T17:05:56;16.90;99.90
63260;DHT22;49390;51.380;0.098;2022-10-28T17:08:24;16.80;99.90
63260;DHT22;49390;51.380;0.098;2022-10-28T17:11:13;16.80;99.90
63260;DHT22;49390;51.380;0.098;2022-10-28T17:13:42;16.70;99.90
63260;DHT22;49390;51.380;0.098;2022-10-28T17:16:10;16.60;99.90
63260;DHT22;49390;51.380;0.098;2022-10-28T17:18:39;16.60;99.90
63260;DHT22;49390;51.380;0.098;2022-10-28T17:21:09;16.50;99.90
63260;DHT22;49390;51.380;0.098;2022-10-28T17:23:38;16.50;99.90
63260;DHT22;49390;51.380;0.098;2022-10-28T17:26:07;16.40;99.90
63260;DHT22;49390;51.380;0.098;2022-10-28T17:28:35;16.40;99.90
63260;DHT22;49390;51.380;0.098;2022-10-28T17:31:07;16.30;99.90
63260;DHT22;49390;51.380;0.098;2022-10-28T17:33:35;16.20;99.90
63260;DHT22;49390;51.380;0.098;2022-10-28T17:36:05;16.20;99.90
63260;DHT22;49390;51.380;0.098;2022-10-28T17:38:35;16.20;99.90
63260;DHT22;49390;51.380;0.098;2022-10-28T17:41:03;16.10;99.90
63260;DHT22;49390;51.380;0.098;2022-10-28T17:43:32;16.00;99.90
63260;DHT22;49390;51.380;0.098;2022-10-28T17:46:06;15.50;99.90
63260;DHT22;49390;51.380;0.098;2022-10-28T17:48:37;15.90;99.90
63260;DHT22;49390;51.380;0.098;2022-10-28T17:51:07;15.90;99.90
63260;DHT22;49390;51.380;0.098;2022-10-28T17:53:35;15.80;99.90
63260;DHT22;49390;51.380;0.098;2022-10-28T17:56:04;15.70;99.90
63260;DHT22;49390;51.380;0.098;2022-10-28T17:58:33;15.70;99.90
63260;DHT22;49390;51.380;0.098;2022-10-28T18:01:06;15.70;99.90
63260;DHT22;49390;51.380;0.098;2022-10-28T18:03:34;15.60;99.90
63260;DHT22;49390;51.380;0.098;2022-10-28T18:06:10;15.60;99.90
63260;DHT22;49390;51.380;0.098;2022-10-28T18:08:40;15.50;99.90
63260;DHT22;49390;51.380;0.098;2022-10-28T18:11:11;15.50;99.90
63260;DHT22;49390;51.380;0.098;2022-10-28T18:13:42;15.40;99.90
63260;DHT22;49390;51.380;0.098;2022-10-28T18:16:16;15.40;99.90
63260;DHT22;49390;51.380;0.098;2022-10-28T18:18:44;15.30;99.90
63260;DHT22;49390;51.380;0.098;2022-10-28T18:21:13;15.30;99.90
63260;DHT22;49390;51.380;0.098;2022-10-28T18:23:42;15.20;99.90
63260;DHT22;49390;51.380;0.098;2022-10-28T18:26:12;15.20;99.90
63260;DHT22;49390;51.380;0.098;2022-10-28T18:28:42;15.20;99.90
63260;DHT22;49390;51.380;0.098;2022-10-28T18:31:12;15.10;99.90
63260;DHT22;49390;51.380;0.098;2022-10-28T18:33:42;15.10;99.90
63260;DHT22;49390;51.380;0.098;2022-10-28T18:36:15;15.00;99.90
63260;DHT22;49390;51.380;0.098;2022-10-28T18:38:44;15.00;99.90
63260;DHT22;49390;51.380;0.098;2022-10-28T18:41:15;15.00;99.90
63260;DHT22;49390;51.380;0.098;2022-10-28T18:43:44;14.90;99.90
63260;DHT22;49390;51.380;0.098;2022-10-28T18:46:18;14.90;99.90
63260;DHT22;49390;51.380;0.098;2022-10-28T18:48:46;14.80;99.90
63260;DHT22;49390;51.380;0.098;2022-10-28T18:51:17;14.80;99.90
63260;DHT22;49390;51.380;0.098;2022-10-28T18:53:46;14.80;99.90
63260;DHT22;49390;51.380;0.098;2022-10-28T18:56:21;14.70;99.90
63260;DHT22;49390;51.380;0.098;2022-10-28T18:58:50;14.70;99.90
63260;DHT22;49390;51.380;0.098;2022-10-28T19:01:23;14.70;99.90
63260;DHT22;49390;51.380;0.098;2022-10-28T19:03:57;14.60;99.90
63260;DHT22;49390;51.380;0.098;2022-10-28T19:06:28;14.60;99.90
63260;DHT22;49390;51.380;0.098;2022-10-28T19:09:02;14.60;99.90
63260;DHT22;49390;51.380;0.098;2022-10-28T19:11:32;14.60;99.90
63260;DHT22;49390;51.380;0.098;2022-10-28T19:14:03;14.50;99.90
63260;DHT22;49390;51.380;0.098;2022-10-28T19:16:33;14.40;99.90
63260;DHT22;49390;51.380;0.098;2022-10-28T19:19:03;14.40;99.90
63260;DHT22;49390;51.380;0.098;2022-10-28T19:21:33;14.40;99.90
63260;DHT22;49390;51.380;0.098;2022-10-28T19:24:04;14.40;99.90
63260;DHT22;49390;51.380;0.098;2022-10-28T19:26:32;14.30;99.90
63260;DHT22;49390;51.380;0.098;2022-10-28T19:29:03;14.30;99.90
63260;DHT22;49390;51.380;0.098;2022-10-28T19:31:34;14.30;99.90
63260;DHT22;49390;51.380;0.098;2022-10-28T19:34:03;14.20;99.90
63260;DHT22;49390;51.380;0.098;2022-10-28T19:36:33;14.20;99.90